帯広空港の過去48時間の天気

帯広空港 (Obihiro)

現在時刻: 9/28 17:03 JST (9/28 08:03 UTC) 以下の時間は現地時間です。

過去48時間のMETAR気象情報
時間 風向 風速(m/s) 視程 気温(℃) 湿度(%) 気圧(hPa) 天気現象
28 16:00 北北西 6 10km以上 17 52 1010
28 15:00 北北西 8 10km以上 18 42 1010
28 14:00 北西 9 10km以上 18 42 1009
28 13:00 北西 9 10km以上 18 45 1009
28 12:00 北西 9 10km以上 17 52 1010
28 11:00 北西 9 10km以上 16 48 1010
28 10:00 北北西 10 10km以上 16 55 1010
28 09:00 北西 10 10km以上 15 59 1009
28 08:00 北北西 8 10km以上 14 63 1009
28 07:40 北西 5 10km以上 14 63 1009
27 20:00 不定 1 10km以上 15 72 1007
27 19:00 不定 1 10km以上 15 77 1007
27 18:00 北東 2 10km以上 15 77 1007
27 17:00 北北東 3 10km以上 16 77 1006
27 16:00 北北西 5 10km以上 17 68 1006
27 15:00 4 10km以上 18 64 1006
27 14:00 5 10km以上 18 64 1006
27 13:00 5 10km以上 18 64 1007
27 12:00 北北西 4 10km以上 18 64 1007
27 11:00 4 10km以上 17 68 1008
27 10:00 北西 4 10km以上 16 72 1009
27 09:00 北西 4 10km以上 14 82 1009
27 08:00 西北西 3 10km以上 14 82 1009
27 07:40 西北西 3 10km以上 13 88 1010 弱いしゅう雨
26 20:28 北北東 3 3000m 12 94 1014 弱いしゅう雨 もや
26 20:00 西北西 4 3000m 12 94 1015 弱いしゅう雨 もや
26 19:19 西北西 5 3000m 12 94 1015 弱いしゅう雨 もや
26 19:09 4 3000m 12 94 1015 弱いしゅう雨 もや
26 19:00 北北西 4 3000m 12 94 1015 弱いしゅう雨 もや
26 18:29 西北西 5 3000m 12 94 1015 弱いしゅう雨 もや
26 18:00 西北西 4 3000m 12 100 1015 弱いしゅう雨 もや
26 17:30 西北西 4 3100m 12 100 1015 弱いしゅう雨 もや
RJCB 280700Z 34012KT 9999 FEW040 17/07 Q1010
RJCB 280600Z 34016KT 9999 FEW040 18/05 Q1010
RJCB 280500Z 32018KT 9999 FEW040 18/05 Q1009
RJCB 280400Z 32017KT 9999 FEW040 18/06 Q1009
RJCB 280300Z 32018KT 9999 FEW040 17/07 Q1010
RJCB 280200Z 32018KT 9999 FEW040 16/05 Q1010
RJCB 280100Z 33019KT 9999 FEW040 16/07 Q1010
RJCB 280000Z 32019KT 9999 FEW035 15/07 Q1009
RJCB 272300Z 33015KT 9999 FEW030 14/07 Q1009
RJCB 272240Z 32010KT 9999 FEW020 14/07 Q1009 RMK 1CU020 A2980
RJCB 271100Z VRB01KT 9999 FEW020 BKN040 15/10 Q1007
RJCB 271000Z VRB02KT 9999 FEW020 BKN040 15/11 Q1007
RJCB 270900Z 04004KT 010V070 9999 FEW020 BKN050 15/11 Q1007
RJCB 270800Z 02005KT 9999 FEW020 BKN050 16/12 Q1006
RJCB 270700Z 34010KT 9999 FEW030 BKN050 17/11 Q1006
RJCB 270600Z 36008KT 9999 FEW030 BKN050 18/11 Q1006
RJCB 270500Z 36010KT 330V030 9999 FEW030 BKN060 18/11 Q1006
RJCB 270400Z 36010KT 320V030 9999 FEW030 BKN060 18/11 Q1007
RJCB 270300Z 34008KT 300V020 9999 FEW030 BKN070 18/11 Q1007
RJCB 270200Z 35007KT 9999 SCT035 BKN050 17/11 Q1008
RJCB 270100Z 32008KT 9999 FEW015 BKN030 16/11 Q1009
RJCB 270000Z 31007KT 280V340 9999 FEW015 BKN025 BKN050 14/11 Q1009
RJCB 262300Z 29006KT 250V320 9999 FEW015 BKN025 14/11 Q1009
RJCB 262240Z 29005KT 250V320 9999 -SHRA FEW010 BKN025 13/11 Q1010 RMK 1ST010 7CU025 A2983
RJCB 261128Z 02006KT 340V070 3000 -SHRA BR FEW002 BKN003 BKN010 12/11 Q1014 RMK 1ST002 5ST003 7ST010 A2997
RJCB 261100Z 29007KT 3000 -SHRA BR FEW004 SCT007 BKN010 12/11 Q1015
RJCB 261019Z 30010KT 3000 -SHRA BR FEW003 SCT004 BKN007 12/11 Q1015 RMK 1ST003 4ST004 7ST007 A2997
RJCB 261009Z 35007KT 290V020 3000 -SHRA BR SCT003 BKN004 BKN007 12/11 Q1015 RMK 3ST003 5ST004 7ST007 A2998
RJCB 261000Z 34007KT 290V010 3000 -SHRA BR FEW003 SCT004 BKN007 12/11 Q1015
RJCB 260929Z 30009KT 3000 -SHRA BR FEW003 BKN009 BKN011 12/11 Q1015 RMK 1ST003 5ST009 7ST011 A2998
RJCB 260900Z 30007KT 3000 -SHRA BR FEW003 SCT009 BKN011 12/12 Q1015
RJCB 260830Z 30008KT 3100 -SHRA BR FEW003 SCT009 BKN011 12/12 Q1015 RMK 1ST003 3ST009 7ST011 A2998